createdAt,value
2023-05-24T00:02:27.230Z,9.75
2023-05-24T00:04:54.602Z,8.80
2023-05-24T00:07:21.619Z,8.77
2023-05-24T00:09:48.841Z,8.60
2023-05-24T00:12:16.483Z,8.77
2023-05-24T00:14:43.509Z,8.48
2023-05-24T00:17:10.502Z,8.70
2023-05-24T00:19:38.457Z,8.20
2023-05-24T00:22:05.593Z,8.73
2023-05-24T00:24:32.586Z,8.20
2023-05-24T00:26:59.535Z,8.13
2023-05-24T00:29:26.847Z,8.30
2023-05-24T00:31:53.827Z,8.45
2023-05-24T00:34:20.856Z,8.02
2023-05-24T00:36:47.891Z,8.45
2023-05-24T00:39:16.208Z,8.68
2023-05-24T00:41:43.237Z,8.48
2023-05-24T00:44:11.142Z,8.77
2023-05-24T00:46:38.860Z,8.77
2023-05-24T00:49:05.886Z,7.97
2023-05-24T00:51:34.042Z,8.25
2023-05-24T00:54:01.319Z,8.38
2023-05-24T00:56:28.974Z,7.70
2023-05-24T00:58:57.136Z,8.15
2023-05-24T01:01:31.247Z,7.28
2023-05-24T01:03:59.865Z,8.07
2023-05-24T01:06:28.536Z,7.88
2023-05-24T01:09:11.741Z,8.10
2023-05-24T01:12:09.665Z,8.10
2023-05-24T01:14:36.928Z,7.18
2023-05-24T01:17:15.294Z,7.30
2023-05-24T01:20:00.227Z,7.90
2023-05-24T01:23:08.765Z,7.82
2023-05-24T01:25:39.089Z,7.47
2023-05-24T01:28:10.928Z,7.22
2023-05-24T01:30:42.480Z,7.57
2023-05-24T01:33:10.426Z,7.22
2023-05-24T01:35:41.328Z,7.50
2023-05-24T01:38:10.873Z,7.32
2023-05-24T01:40:40.282Z,7.57
2023-05-24T01:43:10.279Z,7.32
2023-05-24T01:45:53.163Z,7.20
2023-05-24T01:51:04.990Z,7.10
2023-05-24T01:53:42.356Z,6.88
2023-05-24T01:56:11.358Z,6.97
2023-05-24T01:58:41.194Z,7.70
2023-05-24T02:01:09.567Z,6.78
2023-05-24T02:03:38.329Z,7.05
2023-05-24T02:06:05.917Z,6.93
2023-05-24T02:08:32.880Z,6.97
2023-05-24T02:11:00.542Z,7.13
2023-05-24T02:13:27.467Z,6.75
2023-05-24T02:15:54.916Z,7.47
2023-05-24T02:18:22.711Z,7.47
2023-05-24T02:20:49.770Z,7.28
2023-05-24T02:23:16.891Z,6.82
2023-05-24T02:25:44.174Z,6.65
2023-05-24T02:28:11.344Z,6.40
2023-05-24T02:30:41.052Z,7.38
2023-05-24T02:33:09.215Z,7.00
2023-05-24T02:35:36.508Z,7.15
2023-05-24T02:38:06.745Z,6.68
2023-05-24T02:40:34.742Z,7.15
2023-05-24T02:43:01.849Z,7.20
2023-05-24T02:45:28.826Z,7.18
2023-05-24T02:47:56.281Z,6.57
2023-05-24T02:50:23.664Z,7.57
2023-05-24T02:52:51.768Z,7.57
2023-05-24T02:55:19.323Z,6.70
2023-05-24T02:57:48.165Z,6.57
2023-05-24T03:00:16.353Z,7.32
2023-05-24T03:02:45.382Z,6.38
2023-05-24T03:05:12.509Z,6.72
2023-05-24T03:07:39.501Z,7.05
2023-05-24T03:10:07.110Z,7.03
2023-05-24T03:12:35.261Z,7.55
2023-05-24T03:15:02.429Z,6.93
2023-05-24T03:17:31.256Z,6.78
2023-05-24T03:19:58.591Z,6.90
2023-05-24T03:22:26.022Z,6.95
2023-05-24T03:24:53.130Z,6.55
2023-05-24T03:27:20.187Z,6.05
2023-05-24T03:29:48.297Z,6.53
2023-05-24T03:32:16.606Z,6.40
2023-05-24T03:34:43.624Z,6.07
2023-05-24T03:37:11.066Z,5.70
2023-05-24T03:39:38.947Z,6.45
2023-05-24T03:42:21.393Z,6.10
2023-05-24T03:44:48.484Z,5.88
2023-05-24T03:47:15.582Z,5.80
2023-05-24T03:49:42.562Z,6.50
2023-05-24T03:52:09.636Z,5.90
2023-05-24T03:54:36.668Z,5.85
2023-05-24T03:57:04.048Z,5.85
2023-05-24T03:59:31.280Z,5.53
2023-05-24T04:01:58.380Z,5.78
2023-05-24T04:04:25.823Z,5.72
2023-05-24T04:06:53.990Z,5.90
2023-05-24T04:09:22.775Z,5.55
2023-05-24T04:11:52.905Z,5.68
2023-05-24T04:14:19.885Z,5.80
2023-05-24T04:16:46.926Z,6.25
2023-05-24T04:19:13.986Z,6.72
2023-05-24T04:21:41.115Z,5.80
2023-05-24T04:24:08.640Z,5.82
2023-05-24T04:26:37.738Z,5.53
2023-05-24T04:29:05.064Z,5.93
2023-05-24T04:31:34.253Z,6.10
2023-05-24T04:34:02.164Z,5.82
2023-05-24T04:36:31.496Z,5.32
2023-05-24T04:39:03.145Z,6.18
2023-05-24T04:41:32.177Z,5.80
2023-05-24T04:44:01.875Z,6.10
2023-05-24T04:46:29.222Z,6.10
2023-05-24T04:48:56.260Z,5.82
2023-05-24T04:51:23.570Z,5.75
2023-05-24T04:53:50.879Z,4.68
2023-05-24T04:56:17.946Z,5.78
2023-05-24T04:58:45.099Z,5.70
2023-05-24T05:01:12.026Z,5.72
2023-05-24T05:03:41.919Z,5.70
2023-05-24T05:06:08.902Z,5.72
2023-05-24T05:08:35.956Z,5.63
2023-05-24T05:11:03.700Z,5.35
2023-05-24T05:13:30.707Z,5.53
2023-05-24T05:15:57.726Z,5.72
2023-05-24T05:18:25.032Z,6.00
2023-05-24T05:20:52.805Z,6.10
2023-05-24T05:23:20.090Z,6.03
2023-05-24T05:25:47.022Z,5.68
2023-05-24T05:28:14.022Z,5.85
2023-05-24T05:30:41.097Z,5.22
2023-05-24T05:33:08.315Z,5.57
2023-05-24T05:35:35.419Z,5.28
2023-05-24T05:38:02.491Z,5.60
2023-05-24T05:40:30.513Z,6.40
2023-05-24T05:42:57.559Z,5.70
2023-05-24T05:45:24.972Z,5.35
2023-05-24T05:47:51.980Z,5.50
2023-05-24T05:50:18.996Z,5.53
2023-05-24T05:52:46.136Z,5.88
2023-05-24T05:55:13.172Z,5.57
2023-05-24T05:57:40.333Z,5.78
2023-05-24T06:00:07.948Z,5.13
2023-05-24T06:02:39.021Z,5.47
2023-05-24T06:05:06.300Z,6.35
2023-05-24T06:07:33.996Z,5.72
2023-05-24T06:10:00.989Z,5.93
2023-05-24T06:12:28.029Z,6.43
2023-05-24T06:14:57.634Z,5.60
2023-05-24T06:17:24.956Z,5.50
2023-05-24T06:19:53.868Z,6.05
2023-05-24T06:22:21.708Z,5.65
2023-05-24T06:24:49.292Z,5.53
2023-05-24T06:27:16.402Z,6.05
2023-05-24T06:29:43.640Z,6.20
2023-05-24T06:32:11.320Z,5.78
2023-05-24T06:34:38.576Z,5.38
2023-05-24T06:37:05.797Z,6.15
2023-05-24T06:39:32.960Z,6.35
2023-05-24T06:41:59.931Z,6.32
2023-05-24T06:44:34.301Z,6.03
2023-05-24T06:47:02.267Z,6.13
2023-05-24T06:49:29.725Z,6.00
2023-05-24T06:51:56.891Z,5.75
2023-05-24T06:54:24.090Z,6.03
2023-05-24T06:56:51.449Z,5.25
2023-05-24T06:59:18.443Z,5.65
2023-05-24T07:01:45.491Z,5.80
2023-05-24T07:04:12.585Z,5.40
2023-05-24T07:06:39.686Z,5.65
2023-05-24T07:09:06.972Z,5.85
2023-05-24T07:11:33.956Z,5.50
2023-05-24T07:14:01.028Z,5.47
2023-05-24T07:16:28.027Z,5.78
2023-05-24T07:18:56.405Z,5.40
2023-05-24T07:21:23.357Z,5.82
2023-05-24T07:23:51.454Z,5.38
2023-05-24T07:26:18.418Z,5.20
2023-05-24T07:28:45.981Z,6.20
2023-05-24T07:31:13.399Z,5.43
2023-05-24T07:33:41.356Z,5.97
2023-05-24T07:36:09.226Z,5.55
2023-05-24T07:38:36.391Z,5.32
2023-05-24T07:41:04.917Z,5.85
2023-05-24T07:43:32.005Z,5.22
2023-05-24T07:45:59.061Z,5.45
2023-05-24T07:48:26.203Z,5.00
2023-05-24T07:50:53.201Z,5.38
2023-05-24T07:53:20.216Z,5.13
2023-05-24T07:55:47.286Z,5.32
2023-05-24T07:58:14.284Z,5.60
2023-05-24T08:00:41.855Z,5.55
2023-05-24T08:03:09.075Z,4.57
2023-05-24T08:05:36.121Z,4.97
2023-05-24T08:08:03.138Z,5.65
2023-05-24T08:10:33.101Z,5.28
2023-05-24T08:13:00.057Z,5.75
2023-05-24T08:15:27.020Z,6.03
2023-05-24T08:17:53.979Z,5.47
2023-05-24T08:20:21.204Z,5.18
2023-05-24T08:22:48.737Z,5.68
2023-05-24T08:25:16.016Z,5.72
2023-05-24T08:27:43.073Z,5.20
2023-05-24T08:30:11.268Z,5.50
2023-05-24T08:32:38.717Z,5.15
2023-05-24T08:35:18.672Z,5.47
2023-05-24T08:37:48.058Z,5.40
2023-05-24T08:40:15.328Z,5.05
2023-05-24T08:42:42.728Z,5.95
2023-05-24T08:45:12.613Z,5.22
2023-05-24T08:47:40.396Z,5.00
2023-05-24T08:50:08.743Z,5.47
2023-05-24T08:52:36.686Z,5.15
2023-05-24T08:55:07.557Z,5.55
2023-05-24T08:57:39.452Z,6.30
2023-05-24T09:00:10.445Z,5.50
2023-05-24T09:02:42.766Z,5.53
2023-05-24T09:05:17.304Z,5.50
2023-05-24T09:07:45.518Z,5.22
2023-05-24T09:10:12.594Z,5.43
2023-05-24T09:12:40.620Z,5.20
2023-05-24T09:15:08.993Z,5.25
2023-05-24T09:17:37.480Z,6.22
2023-05-24T09:20:08.562Z,5.50
2023-05-24T09:22:42.715Z,5.25
2023-05-24T09:25:12.707Z,5.38
2023-05-24T09:27:40.029Z,5.40
2023-05-24T09:30:11.034Z,5.75
2023-05-24T09:32:38.693Z,5.30
2023-05-24T09:35:09.876Z,5.35
2023-05-24T09:37:38.942Z,5.43
2023-05-24T09:40:11.474Z,5.47
2023-05-24T09:42:41.386Z,5.53
2023-05-24T09:45:12.368Z,6.47
2023-05-24T09:47:45.432Z,5.80
2023-05-24T09:50:22.471Z,5.22
2023-05-24T09:52:51.239Z,5.78
2023-05-24T09:55:52.238Z,6.63
2023-05-24T10:01:17.010Z,6.07
2023-05-24T10:04:19.733Z,6.00
2023-05-24T10:06:53.533Z,6.00
2023-05-24T10:09:38.202Z,4.85
2023-05-24T10:12:21.373Z,5.22
2023-05-24T10:15:04.236Z,5.65
2023-05-24T10:17:39.672Z,4.85
2023-05-24T10:20:15.924Z,5.68
2023-05-24T10:23:18.473Z,5.78
2023-05-24T10:26:12.252Z,6.00
2023-05-24T10:28:50.351Z,5.88
2023-05-24T10:31:39.724Z,5.55
2023-05-24T10:34:13.161Z,5.80
2023-05-24T10:37:15.150Z,6.45
2023-05-24T10:39:51.397Z,6.22
2023-05-24T10:42:37.631Z,5.68
2023-05-24T10:45:43.069Z,5.82
2023-05-24T10:48:21.164Z,5.85
2023-05-24T10:51:21.269Z,5.60
2023-05-24T10:53:52.714Z,5.78
2023-05-24T10:56:37.252Z,5.57
2023-05-24T10:59:50.695Z,5.85
2023-05-24T11:02:35.702Z,5.68
2023-05-24T11:05:20.534Z,6.63
2023-05-24T11:08:07.357Z,5.65
2023-05-24T11:10:44.831Z,5.82
2023-05-24T11:13:19.345Z,5.28
2023-05-24T11:16:12.357Z,5.90
2023-05-24T11:19:03.007Z,5.63
2023-05-24T11:21:32.992Z,5.38
2023-05-24T11:24:10.191Z,5.53
2023-05-24T11:26:51.277Z,5.47
2023-05-24T11:29:25.422Z,5.30
2023-05-24T11:32:13.133Z,5.32
2023-05-24T11:34:48.408Z,5.95
2023-05-24T11:37:28.618Z,5.82
2023-05-24T11:42:50.739Z,5.63
2023-05-24T11:45:38.897Z,5.68
2023-05-24T11:48:32.233Z,5.40
2023-05-24T11:51:14.358Z,5.38
2023-05-24T11:53:55.670Z,5.70
2023-05-24T11:56:39.275Z,4.97
2023-05-24T11:59:29.188Z,5.40
2023-05-24T12:02:04.739Z,5.32
2023-05-24T12:04:33.153Z,7.00
2023-05-24T12:07:00.604Z,5.68
2023-05-24T12:09:28.619Z,5.60
2023-05-24T12:11:57.769Z,5.30
2023-05-24T12:14:31.181Z,5.88
2023-05-24T12:16:58.957Z,5.53
2023-05-24T12:19:33.908Z,5.38
2023-05-24T12:22:05.116Z,5.65
2023-05-24T12:24:32.738Z,6.30
2023-05-24T12:27:07.107Z,5.65
2023-05-24T12:29:40.336Z,5.88
2023-05-24T12:32:13.282Z,5.15
2023-05-24T12:34:42.669Z,5.35
2023-05-24T12:37:11.087Z,5.68
2023-05-24T12:39:38.857Z,5.57
2023-05-24T12:42:06.176Z,5.30
2023-05-24T12:44:37.701Z,6.25
2023-05-24T12:47:06.827Z,5.72
2023-05-24T12:49:34.374Z,6.13
2023-05-24T12:52:04.417Z,5.60
2023-05-24T12:54:31.592Z,6.00
2023-05-24T12:57:03.219Z,5.93
2023-05-24T12:59:30.418Z,5.65
2023-05-24T13:01:57.990Z,5.75
2023-05-24T13:04:27.583Z,5.85
2023-05-24T13:06:55.361Z,5.45
2023-05-24T13:09:23.759Z,6.05
2023-05-24T13:11:51.504Z,5.85
2023-05-24T13:14:20.037Z,5.82
2023-05-24T13:16:48.027Z,6.28
2023-05-24T13:19:15.473Z,6.20
2023-05-24T13:21:42.788Z,6.03
2023-05-24T13:24:09.970Z,5.65
2023-05-24T13:26:37.563Z,5.18
2023-05-24T13:31:37.902Z,5.72
2023-05-24T13:34:05.879Z,5.63
2023-05-24T13:36:33.348Z,6.05
2023-05-24T13:41:31.018Z,5.45
2023-05-24T13:43:58.214Z,5.43
2023-05-24T13:46:25.220Z,5.80
2023-05-24T13:48:52.564Z,5.47
2023-05-24T13:51:19.989Z,5.50
2023-05-24T13:53:48.130Z,5.88
2023-05-24T13:56:15.886Z,5.72
2023-05-24T13:58:43.333Z,5.70
2023-05-24T14:01:10.991Z,5.35
2023-05-24T14:03:40.352Z,5.05
2023-05-24T14:06:08.490Z,5.72
2023-05-24T14:08:35.820Z,5.03
2023-05-24T14:11:02.794Z,5.28
2023-05-24T14:15:59.855Z,5.30
2023-05-24T14:18:26.877Z,5.00
2023-05-24T14:20:54.113Z,4.80
2023-05-24T14:23:21.195Z,4.90
2023-05-24T14:25:48.262Z,4.65
2023-05-24T14:28:15.213Z,4.82
2023-05-24T14:30:42.450Z,5.07
2023-05-24T14:33:11.482Z,5.03
2023-05-24T14:35:40.112Z,5.30
2023-05-24T14:38:08.747Z,4.93
2023-05-24T14:40:37.144Z,5.05
2023-05-24T14:43:05.162Z,5.15
2023-05-24T14:45:32.825Z,4.80
2023-05-24T14:48:00.986Z,4.40
2023-05-24T14:50:28.212Z,4.90
2023-05-24T14:52:55.826Z,3.90
2023-05-24T14:55:23.118Z,4.00
2023-05-24T14:57:50.467Z,4.30
2023-05-24T15:00:20.587Z,4.13
2023-05-24T15:02:49.579Z,4.47
2023-05-24T15:05:16.809Z,4.20
2023-05-24T15:07:43.798Z,4.55
2023-05-24T15:10:11.102Z,3.60
2023-05-24T15:12:38.272Z,3.50
2023-05-24T15:15:06.782Z,3.70
2023-05-24T15:17:33.998Z,3.92
2023-05-24T15:20:01.086Z,3.97
2023-05-24T15:22:28.091Z,3.83
2023-05-24T15:24:55.374Z,3.80
2023-05-24T15:27:22.484Z,3.97
2023-05-24T15:29:49.369Z,4.43
2023-05-24T15:32:17.386Z,3.78
2023-05-24T15:34:44.817Z,3.53
2023-05-24T15:37:12.054Z,3.53
2023-05-24T15:39:39.036Z,3.70
2023-05-24T15:42:06.550Z,4.18
2023-05-24T15:44:33.710Z,4.13
2023-05-24T15:47:00.889Z,3.92
2023-05-24T15:49:28.487Z,4.07
2023-05-24T15:52:02.684Z,3.42
2023-05-24T15:54:30.564Z,3.50
2023-05-24T15:56:57.599Z,3.50
2023-05-24T15:59:24.601Z,3.47
2023-05-24T16:01:51.712Z,3.70
2023-05-24T16:04:19.114Z,3.58
2023-05-24T16:06:46.125Z,3.30
2023-05-24T16:09:13.138Z,3.92
2023-05-24T16:11:40.124Z,2.97
2023-05-24T16:14:07.147Z,3.20
2023-05-24T16:16:36.756Z,3.53
2023-05-24T16:19:03.864Z,3.45
2023-05-24T16:21:31.178Z,3.50
2023-05-24T16:24:02.006Z,2.97
2023-05-24T16:26:30.854Z,3.05
2023-05-24T16:28:58.849Z,3.40
2023-05-24T16:31:26.367Z,3.47
2023-05-24T16:33:53.366Z,2.97
2023-05-24T16:36:21.303Z,3.47
2023-05-24T16:38:48.370Z,3.47
2023-05-24T16:41:15.426Z,2.70
2023-05-24T16:43:42.386Z,3.40
2023-05-24T16:46:10.971Z,3.88
2023-05-24T16:48:39.052Z,3.30
2023-05-24T16:51:06.064Z,3.28
2023-05-24T16:53:33.162Z,3.00
2023-05-24T16:56:00.149Z,3.50
2023-05-24T16:58:28.713Z,3.25
2023-05-24T17:00:55.833Z,2.65
2023-05-24T17:03:28.627Z,3.10
2023-05-24T17:05:59.396Z,2.95
2023-05-24T17:08:28.566Z,2.78
2023-05-24T17:10:59.187Z,2.78
2023-05-24T17:13:29.504Z,2.88
2023-05-24T17:15:57.778Z,2.72
2023-05-24T17:18:28.913Z,2.92
2023-05-24T17:21:01.379Z,2.80
2023-05-24T17:23:31.940Z,2.83
2023-05-24T17:25:59.200Z,2.67
2023-05-24T17:28:30.057Z,2.83
2023-05-24T17:30:59.257Z,2.65
2023-05-24T17:33:29.423Z,2.75
2023-05-24T17:35:57.091Z,2.40
2023-05-24T17:38:25.253Z,2.72
2023-05-24T17:40:59.348Z,2.78
2023-05-24T17:43:32.793Z,2.45
2023-05-24T17:46:06.016Z,2.20
2023-05-24T17:48:37.016Z,2.55
2023-05-24T17:51:06.827Z,2.80
2023-05-24T17:53:35.217Z,2.50
2023-05-24T17:56:03.107Z,2.35
2023-05-24T17:58:36.354Z,2.85
2023-05-24T18:01:11.102Z,2.35
2023-05-24T18:03:39.303Z,3.15
2023-05-24T18:06:07.445Z,2.30
2023-05-24T18:08:41.111Z,2.78
2023-05-24T18:11:08.896Z,2.45
2023-05-24T18:13:38.902Z,2.50
2023-05-24T18:16:06.999Z,2.40
2023-05-24T18:18:34.429Z,3.15
2023-05-24T18:21:01.524Z,2.80
2023-05-24T18:23:28.607Z,2.80
2023-05-24T18:26:01.391Z,3.08
2023-05-24T18:28:30.341Z,2.70
2023-05-24T18:30:57.232Z,3.05
2023-05-24T18:33:24.433Z,2.85
2023-05-24T18:35:51.574Z,2.70
2023-05-24T18:38:19.979Z,2.90
2023-05-24T18:40:46.928Z,2.47
2023-05-24T18:43:13.891Z,2.78
2023-05-24T18:45:40.896Z,3.33
2023-05-24T18:48:08.197Z,3.15
2023-05-24T18:50:35.300Z,2.92
2023-05-24T18:53:02.194Z,3.17
2023-05-24T18:55:29.280Z,2.92
2023-05-24T18:57:56.224Z,3.28
2023-05-24T19:00:24.498Z,2.92
2023-05-24T19:02:51.812Z,3.13
2023-05-24T19:05:20.028Z,3.15
2023-05-24T19:07:47.037Z,3.00
2023-05-24T19:10:14.080Z,3.03
2023-05-24T19:12:41.055Z,3.13
2023-05-24T19:15:08.642Z,3.30
2023-05-24T19:17:35.647Z,3.25
2023-05-24T19:20:03.947Z,2.97
2023-05-24T19:22:31.074Z,3.75
2023-05-24T19:24:58.192Z,3.22
2023-05-24T19:27:25.191Z,3.33
2023-05-24T19:29:52.197Z,3.22
2023-05-24T19:32:20.538Z,3.42
2023-05-24T19:34:47.615Z,3.42
2023-05-24T19:37:15.888Z,3.20
2023-05-24T19:39:42.860Z,3.17
2023-05-24T19:42:13.678Z,2.95
2023-05-24T19:44:40.662Z,3.08
2023-05-24T19:47:07.590Z,2.90
2023-05-24T19:49:34.617Z,3.03
2023-05-24T19:52:01.534Z,3.70
2023-05-24T19:54:28.781Z,3.50
2023-05-24T19:56:57.767Z,3.38
2023-05-24T19:59:24.669Z,3.70
2023-05-24T20:01:51.704Z,3.30
2023-05-24T20:04:18.874Z,3.45
2023-05-24T20:06:48.197Z,3.50
2023-05-24T20:09:18.832Z,3.70
2023-05-24T20:11:46.454Z,3.30
2023-05-24T20:14:13.552Z,3.80
2023-05-24T20:16:40.849Z,4.07
2023-05-24T20:19:07.922Z,3.70
2023-05-24T20:21:34.933Z,4.07
2023-05-24T20:24:02.007Z,3.83
2023-05-24T20:26:29.114Z,4.28
2023-05-24T20:28:56.156Z,3.15
2023-05-24T20:31:23.163Z,3.30
2023-05-24T20:33:51.671Z,3.30
2023-05-24T20:36:18.622Z,3.50
2023-05-24T20:38:45.685Z,3.33
2023-05-24T20:41:12.674Z,3.60
2023-05-24T20:43:39.650Z,3.83
2023-05-24T20:46:06.744Z,3.40
2023-05-24T20:48:34.462Z,3.88
2023-05-24T20:51:01.442Z,3.40
2023-05-24T20:53:29.287Z,3.70
2023-05-24T20:55:56.746Z,3.75
2023-05-24T20:58:23.812Z,3.80
2023-05-24T21:03:18.399Z,3.95
2023-05-24T21:05:45.808Z,4.03
2023-05-24T21:08:12.976Z,3.60
2023-05-24T21:10:40.021Z,4.00
2023-05-24T21:13:07.572Z,4.30
2023-05-24T21:15:35.384Z,4.22
2023-05-24T21:18:03.760Z,3.92
2023-05-24T21:20:30.815Z,4.00
2023-05-24T21:22:57.814Z,4.40
2023-05-24T21:25:24.853Z,3.55
2023-05-24T21:27:52.871Z,3.95
2023-05-24T21:30:19.764Z,3.47
2023-05-24T21:32:46.771Z,3.78
2023-05-24T21:35:13.851Z,3.95
2023-05-24T21:37:40.790Z,3.78
2023-05-24T21:40:08.145Z,4.00
2023-05-24T21:42:35.928Z,3.78
2023-05-24T21:45:03.033Z,3.90
2023-05-24T21:47:30.209Z,3.65
2023-05-24T21:49:57.549Z,3.40
2023-05-24T21:52:24.526Z,3.95
2023-05-24T21:54:51.533Z,3.30
2023-05-24T21:57:18.570Z,4.20
2023-05-24T21:59:45.615Z,3.60
2023-05-24T22:02:14.479Z,3.92
2023-05-24T22:04:41.532Z,4.32
2023-05-24T22:07:08.545Z,4.22
2023-05-24T22:09:35.839Z,4.55
2023-05-24T22:12:03.019Z,4.60
2023-05-24T22:14:30.133Z,5.38
2023-05-24T22:16:57.262Z,4.68
2023-05-24T22:19:38.804Z,4.43
2023-05-24T22:22:08.038Z,4.63
2023-05-24T22:24:35.035Z,4.72
2023-05-24T22:27:02.566Z,4.40
2023-05-24T22:29:29.694Z,4.60
2023-05-24T22:31:56.748Z,4.50
2023-05-24T22:34:28.544Z,4.70
2023-05-24T22:36:57.668Z,4.70
2023-05-24T22:39:25.262Z,4.53
2023-05-24T22:41:53.195Z,4.45
2023-05-24T22:44:20.273Z,5.05
2023-05-24T22:46:49.799Z,4.65
2023-05-24T22:49:19.671Z,5.03
2023-05-24T22:51:48.474Z,5.70
2023-05-24T22:54:15.867Z,4.65
2023-05-24T22:56:43.998Z,4.53
2023-05-24T22:59:11.356Z,5.15
2023-05-24T23:01:38.720Z,4.63
2023-05-24T23:04:19.808Z,4.28
2023-05-24T23:06:48.981Z,4.05
2023-05-24T23:09:17.658Z,4.00
2023-05-24T23:11:46.182Z,3.83
2023-05-24T23:14:14.298Z,4.15
2023-05-24T23:16:45.199Z,4.50
2023-05-24T23:19:18.502Z,4.38
2023-05-24T23:21:46.004Z,4.63
2023-05-24T23:24:14.777Z,4.32
2023-05-24T23:26:42.575Z,5.20
2023-05-24T23:29:09.925Z,4.72
2023-05-24T23:31:37.088Z,4.72
2023-05-24T23:34:04.735Z,5.10
2023-05-24T23:36:31.893Z,4.57
2023-05-24T23:38:58.865Z,4.43
2023-05-24T23:41:26.540Z,4.85
2023-05-24T23:43:53.597Z,5.05
2023-05-24T23:46:20.654Z,4.78
2023-05-24T23:48:47.803Z,5.13
2023-05-24T23:51:14.785Z,4.65
2023-05-24T23:53:41.803Z,5.22
2023-05-24T23:56:08.838Z,4.78
2023-05-24T23:58:37.790Z,5.00
